Time;durP1;ratioP1;P1;durP2;ratioP2;P2;SDS_P1;SDS_P2;PMS_P1;PMS_P2;Temp;Humidity;BMP_temperature;BMP_pressure;BME280_temperature;BME280_humidity;BME280_pressure;Samples;Min_cycle;Max_cycle;Signal;HPM_P1;HPM_P2
2022/07/28 00:00:28;;;;;;;54.80;27.30;;;;;;;19.64;83.37;99878.55;1659307;86;21218;-79
2022/07/28 00:03:34;;;;;;;65.37;32.73;;;;;;;19.65;83.34;99880.23;1659153;86;21229;-80
2022/07/28 00:06:39;;;;;;;72.58;37.55;;;;;;;19.58;83.19;99875.34;1659209;86;21738;-78
2022/07/28 00:09:46;;;;;;;74.10;38.20;;;;;;;19.54;83.39;99880.24;1659673;86;21201;-79
2022/07/28 00:12:54;;;;;;;91.92;42.73;;;;;;;19.48;83.77;99884.84;1665283;86;21208;-79
2022/07/28 00:16:02;;;;;;;104.85;48.28;;;;;;;19.49;83.85;99878.20;1664147;86;21844;-79
2022/07/28 00:19:09;;;;;;;65.37;33.23;;;;;;;19.47;84.26;99885.07;1665359;86;21241;-81
2022/07/28 00:22:14;;;;;;;72.08;36.08;;;;;;;19.38;84.88;99888.77;1664277;86;21299;-79
2022/07/28 00:25:19;;;;;;;71.45;37.30;;;;;;;19.39;85.36;99889.09;1665106;86;21252;-79
2022/07/28 00:28:25;;;;;;;66.72;31.73;;;;;;;19.40;85.70;99895.77;1664029;86;21800;-78
2022/07/28 00:31:31;;;;;;;47.73;26.57;;;;;;;19.40;85.70;99892.99;1664308;86;21220;-79
2022/07/28 00:34:37;;;;;;;48.90;22.52;;;;;;;19.36;85.92;99890.95;1664363;86;21181;-80
2022/07/28 00:37:42;;;;;;;46.75;23.02;;;;;;;19.29;86.34;99889.70;1665135;86;21272;-80
2022/07/28 00:44:20;;;;;;;39.08;19.73;;;;;;;19.20;87.23;99891.72;1664693;86;21244;-80
2022/07/28 00:47:18;;;;;;;37.63;19.30;;;;;;;19.17;87.38;99890.26;1665615;86;21219;-80
2022/07/28 00:50:25;;;;;;;36.10;18.93;;;;;;;19.15;87.29;99889.13;1664382;86;21247;-81
2022/07/28 00:53:32;;;;;;;37.30;18.52;;;;;;;19.18;87.07;99889.16;1665334;86;21188;-79
2022/07/28 00:56:39;;;;;;;42.40;20.90;;;;;;;19.22;86.79;99889.53;1664387;86;21243;-79
2022/07/28 00:59:44;;;;;;;54.38;32.35;;;;;;;19.22;86.71;99888.98;1665541;86;21192;-79
2022/07/28 01:02:51;;;;;;;61.55;33.42;;;;;;;19.21;87.16;99892.01;1665518;86;21781;-80
2022/07/28 01:06:12;;;;;;;63.20;34.18;;;;;;;19.15;87.38;99883.58;1664890;86;21236;-79
2022/07/28 01:09:38;;;;;;;86.50;43.98;;;;;;;19.09;87.53;99887.84;1665551;86;21197;-79
2022/07/28 01:13:04;;;;;;;91.35;49.15;;;;;;;19.00;88.12;99891.52;1657606;85;21208;-80
2022/07/28 01:16:12;;;;;;;139.35;72.10;;;;;;;18.91;88.37;99891.58;1608403;89;21253;-80
2022/07/28 01:19:51;;;;;;;118.22;59.05;;;;;;;18.83;89.10;99891.97;1652593;87;21775;-79
2022/07/28 01:23:21;;;;;;;116.62;58.45;;;;;;;18.77;89.84;99892.91;1609199;89;21240;-80
2022/07/28 01:26:37;;;;;;;;;;;;;;;18.77;90.69;99898.45;1654977;87;21229;-80
2022/07/28 01:30:05;;;;;;;89.77;50.25;;;;;;;18.75;91.18;99895.09;1635319;87;20649;-80
2022/07/28 01:33:10;;;;;;;96.82;50.05;;;;;;;18.71;91.31;99899.41;1652690;87;21185;-80
2022/07/28 01:36:22;;;;;;;94.47;50.92;;;;;;;18.72;92.22;99900.55;1608952;89;21291;-80
2022/07/28 01:39:28;;;;;;;95.83;51.68;;;;;;;18.75;92.60;99890.38;1652564;87;21751;-80
2022/07/28 01:42:40;;;;;;;87.37;47.15;;;;;;;18.76;92.81;99894.83;1610312;89;21801;-80
2022/07/28 01:45:46;;;;;;;106.83;54.35;;;;;;;18.80;92.85;99893.82;1651366;87;21746;-80
2022/07/28 01:48:53;;;;;;;100.50;54.48;;;;;;;18.82;92.78;99901.34;1609509;89;21216;-80
2022/07/28 01:51:59;;;;;;;76.60;41.70;;;;;;;18.81;92.77;99905.20;1652488;87;21608;-80
2022/07/28 01:55:07;;;;;;;77.20;38.23;;;;;;;18.81;92.63;99901.04;1609843;89;21240;-81
2022/07/28 01:58:12;;;;;;;70.12;35.35;;;;;;;18.83;92.21;99905.81;1651266;87;21232;-80
2022/07/28 02:01:18;;;;;;;57.80;32.23;;;;;;;18.85;91.87;99903.64;1608350;89;21253;-80
2022/07/28 02:04:25;;;;;;;68.00;33.85;;;;;;;18.88;91.57;99905.94;1652362;87;21771;-80
2022/07/28 02:07:32;;;;;;;48.25;27.07;;;;;;;18.90;91.32;99907.37;1610252;89;21825;-80
2022/07/28 02:10:37;;;;;;;53.65;30.02;;;;;;;18.94;91.13;99909.13;1652601;87;21228;-80
2022/07/28 02:13:43;;;;;;;47.17;26.60;;;;;;;18.96;90.89;99912.52;1624785;87;21213;-80
2022/07/28 02:16:53;;;;;;;49.53;25.62;;;;;;;18.99;90.65;99904.24;1652596;87;21786;-80
2022/07/28 02:19:58;;;;;;;47.55;23.87;;;;;;;19.01;90.46;99908.48;1652835;87;21264;-80
2022/07/28 02:23:05;;;;;;;57.27;30.05;;;;;;;19.05;90.18;99912.97;1652596;87;21758;-80
2022/07/28 02:26:15;;;;;;;51.98;30.55;;;;;;;19.10;89.89;99913.09;1651225;87;21794;-80
2022/07/28 02:29:20;;;;;;;43.05;21.40;;;;;;;19.08;89.82;99916.11;1652552;87;21177;-80
2022/07/28 02:32:40;;;;;;;45.88;23.32;;;;;;;19.11;89.74;99920.34;1651888;87;21187;-80
2022/07/28 02:35:52;;;;;;;42.58;20.65;;;;;;;19.29;89.43;99929.05;1651412;86;21829;-80
2022/07/28 02:38:58;;;;;;;73.05;36.33;;;;;;;19.57;88.47;99924.98;1633027;87;21309;-80
2022/07/28 02:42:09;;;;;;;67.15;35.08;;;;;;;19.92;87.01;99926.84;1652549;87;21158;-80
2022/07/28 02:45:15;;;;;;;43.28;21.17;;;;;;;20.27;85.42;99927.22;1652390;87;21216;-80
2022/07/28 02:48:25;;;;;;;58.45;30.75;;;;;;;20.62;83.51;99923.73;1652620;87;21201;-80
2022/07/28 02:51:34;;;;;;;65.35;34.33;;;;;;;21.03;81.47;99918.85;1652665;87;21280;-81
2022/07/28 02:54:40;;;;;;;60.95;32.80;;;;;;;21.48;79.43;99920.62;1651351;87;21830;-80
2022/07/28 02:57:46;;;;;;;61.28;32.55;;;;;;;21.88;77.44;99923.66;1652376;87;21207;-78
2022/07/28 03:00:54;;;;;;;37.63;20.55;;;;;;;22.23;75.55;99923.23;1652520;87;21228;-79
2022/07/28 03:03:59;;;;;;;47.17;25.12;;;;;;;22.54;73.99;99927.74;1652563;87;21212;-80
2022/07/28 03:07:05;;;;;;;34.33;17.40;;;;;;;22.90;72.29;99940.05;1651223;87;21209;-79
2022/07/28 03:10:12;;;;;;;21.55;13.22;;;;;;;23.22;70.43;99928.86;1652182;87;21241;-80
2022/07/28 03:13:20;;;;;;;22.75;11.40;;;;;;;23.48;68.60;99932.66;1651785;87;21181;-80
2022/07/28 03:16:26;;;;;;;22.40;10.90;;;;;;;23.65;67.90;99938.91;1651618;87;21822;-80
2022/07/28 03:19:32;;;;;;;37.98;18.25;;;;;;;23.83;67.61;99935.36;1652512;87;21190;-81
2022/07/28 03:22:39;;;;;;;20.15;11.55;;;;;;;24.10;67.05;99939.38;1652726;87;21193;-80
2022/07/28 03:25:52;;;;;;;26.68;11.80;;;;;;;24.34;65.75;99935.53;1651260;87;21224;-80
2022/07/28 03:28:57;;;;;;;31.87;16.35;;;;;;;24.59;64.99;99936.98;1652584;87;21253;-81
2022/07/28 03:32:02;;;;;;;32.50;17.07;;;;;;;24.92;64.05;99932.80;1652523;87;21783;-81
2022/07/28 03:35:09;;;;;;;21.33;11.45;;;;;;;25.22;63.35;99936.75;1652338;87;21232;-80
2022/07/28 03:38:21;;;;;;;27.75;10.60;;;;;;;25.47;60.86;99931.65;1652524;87;21770;-80
2022/07/28 03:41:25;;;;;;;17.52;9.93;;;;;;;25.74;59.54;99939.70;1652731;87;21774;-81
2022/07/28 03:44:31;;;;;;;17.55;8.83;;;;;;;25.90;59.20;99939.93;1652690;87;21181;-80
2022/07/28 03:47:37;;;;;;;14.13;9.35;;;;;;;26.06;57.96;99947.69;1651710;87;21789;-80
2022/07/28 03:50:45;;;;;;;15.60;8.28;;;;;;;26.22;57.66;99940.06;1651340;87;21244;-80
2022/07/28 03:53:50;;;;;;;14.70;8.23;;;;;;;26.34;57.06;99945.30;1652477;87;21190;-80
2022/07/28 03:56:56;;;;;;;19.37;8.98;;;;;;;26.37;56.96;99944.17;1651982;87;21799;-81
2022/07/28 04:00:02;;;;;;;14.45;9.23;;;;;;;26.43;57.38;99950.61;1652183;87;21273;-80
2022/07/28 04:03:08;;;;;;;21.45;9.60;;;;;;;26.54;56.63;99951.38;1652554;87;21201;-80
2022/07/28 04:06:15;;;;;;;14.85;9.53;;;;;;;26.63;56.21;99950.49;1635794;87;21783;-80
2022/07/28 04:09:22;;;;;;;21.35;8.65;;;;;;;26.65;56.44;99956.64;1665633;86;21225;-80
2022/07/28 04:12:28;;;;;;;19.73;9.50;;;;;;;26.68;56.53;99961.67;1652505;87;21205;-80
2022/07/28 04:15:35;;;;;;;13.30;7.60;;;;;;;26.70;57.84;99962.20;1640718;86;21758;-80
2022/07/28 04:18:41;;;;;;;9.90;6.15;;;;;;;26.73;57.23;99964.44;1665122;86;21757;-80
2022/07/28 04:21:47;;;;;;;9.40;6.03;;;;;;;26.76;56.05;99965.23;1648094;87;21225;-80
2022/07/28 04:24:52;;;;;;;8.75;5.62;;;;;;;26.74;55.91;99961.06;1665030;86;21208;-80
2022/07/28 04:27:58;;;;;;;18.20;6.00;;;;;;;26.74;55.69;99968.08;1647137;87;21230;-81
2022/07/28 04:31:05;;;;;;;6.75;4.87;;;;;;;26.77;55.09;99968.88;1654521;86;21256;-81
2022/07/28 04:34:05;;;;;;;9.78;6.20;;;;;;;26.82;55.50;99975.02;1657083;86;21257;-80
2022/07/28 04:37:13;;;;;;;11.83;6.35;;;;;;;26.92;55.49;99973.56;1658952;86;21769;-80
2022/07/28 04:40:18;;;;;;;7.90;4.80;;;;;;;27.08;55.53;99973.72;1659240;86;21208;-79
2022/07/28 04:43:25;;;;;;;5.85;4.58;;;;;;;27.22;54.63;99971.91;1658410;86;21770;-80
2022/07/28 04:46:33;;;;;;;6.37;3.90;;;;;;;27.25;53.69;99972.73;1657629;86;21808;-80
2022/07/28 04:49:32;;;;;;;7.50;4.15;;;;;;;27.33;52.82;99976.02;1657660;86;21243;-80
2022/07/28 04:52:25;;;;;;;6.08;4.10;;;;;;;27.36;52.83;99979.66;1658822;86;21173;-80
2022/07/28 04:55:31;;;;;;;6.08;4.20;;;;;;;27.35;52.70;99981.62;1658965;86;21197;-80
2022/07/28 04:58:36;;;;;;;6.15;4.33;;;;;;;27.33;53.09;99989.48;1658906;86;21216;-80
2022/07/28 05:01:43;;;;;;;10.35;4.70;;;;;;;27.38;53.21;99988.60;1658949;86;21237;-80
2022/07/28 05:04:48;;;;;;;6.95;3.77;;;;;;;27.52;52.67;99990.98;1658733;86;21237;-80
2022/07/28 05:07:54;;;;;;;4.55;3.60;;;;;;;27.61;52.00;99989.78;1659112;86;21224;-80
2022/07/28 05:11:03;;;;;;;4.15;3.30;;;;;;;27.69;51.72;99994.19;1635270;86;21241;-80
2022/07/28 05:14:09;;;;;;;7.00;4.35;;;;;;;27.80;51.52;99992.70;1646563;87;21189;-80
2022/07/28 05:17:17;;;;;;;4.67;3.90;;;;;;;27.85;51.05;99998.25;1660360;86;21166;-80
2022/07/28 05:20:24;;;;;;;7.40;4.40;;;;;;;27.94;51.38;100003.49;1666069;86;21191;-79
2022/07/28 05:23:29;;;;;;;8.85;4.70;;;;;;;27.99;51.09;100013.27;1673716;86;21205;-81
2022/07/28 05:26:35;;;;;;;7.45;4.10;;;;;;;28.06;51.04;100009.55;1673007;86;21205;-79
2022/07/28 05:29:42;;;;;;;7.28;4.05;;;;;;;28.23;51.31;100008.48;1646248;86;21794;-81
2022/07/28 05:32:50;;;;;;;7.78;4.20;;;;;;;28.41;50.04;100018.67;1623016;88;21269;-82
2022/07/28 05:36:02;;;;;;;4.65;3.85;;;;;;;28.49;49.47;100016.61;1641459;87;21265;-81
2022/07/28 05:39:07;;;;;;;8.80;3.60;;;;;;;28.59;48.50;100016.45;1661000;86;21189;-82
2022/07/28 05:42:13;;;;;;;6.30;3.58;;;;;;;28.73;48.80;100014.56;1644316;87;21209;-81
2022/07/28 05:45:18;;;;;;;6.70;4.05;;;;;;;28.73;48.80;100014.56;1660907;86;21289;-81
2022/07/28 05:48:26;;;;;;;14.28;4.87;;;;;;;28.83;48.50;100008.52;1626193;87;21870;-81
2022/07/28 05:51:32;;;;;;;7.40;4.42;;;;;;;29.02;48.18;100016.40;1643926;86;21204;-81
2022/07/28 05:54:38;;;;;;;7.40;4.90;;;;;;;28.99;47.82;100017.03;1629338;87;21239;-80
2022/07/28 05:57:43;;;;;;;11.65;6.33;;;;;;;29.07;48.66;100015.48;1637168;87;21191;-82
2022/07/28 06:00:49;;;;;;;12.25;7.50;;;;;;;29.16;48.17;100013.06;1646350;86;21181;-80
2022/07/28 06:03:56;;;;;;;16.95;6.03;;;;;;;29.32;48.24;100013.66;1639279;87;21185;-80
2022/07/28 06:07:02;;;;;;;8.20;5.87;;;;;;;29.51;47.27;100023.47;1636180;87;21178;-82
2022/07/28 06:10:09;;;;;;;6.97;4.95;;;;;;;29.42;47.13;100019.69;1639555;87;21740;-81
2022/07/28 06:13:15;;;;;;;9.85;6.15;;;;;;;29.39;46.31;100017.48;1635618;87;21277;-80
2022/07/28 06:16:21;;;;;;;11.20;5.42;;;;;;;29.42;46.88;100018.28;1617630;87;21206;-80
2022/07/28 06:19:27;;;;;;;6.10;3.83;;;;;;;29.45;44.79;100017.64;1616090;88;21219;-82
2022/07/28 06:22:33;;;;;;;12.18;4.62;;;;;;;29.43;44.79;100015.72;1625748;87;21186;-80
2022/07/28 06:25:39;;;;;;;10.43;5.00;;;;;;;29.46;44.28;100020.17;1625985;87;21230;-80
2022/07/28 06:28:44;;;;;;;10.35;6.03;;;;;;;29.55;44.19;100020.34;1621568;88;21240;-82
2022/07/28 06:31:44;;;;;;;8.93;4.78;;;;;;;29.66;44.08;100026.03;1636633;87;21792;-81
2022/07/28 06:34:50;;;;;;;7.75;4.10;;;;;;;29.65;44.16;100013.09;1623984;87;21176;-82
2022/07/28 06:37:56;;;;;;;7.80;4.70;;;;;;;29.65;44.16;100013.09;1627530;88;21202;-79
2022/07/28 06:41:03;;;;;;;9.95;5.03;;;;;;;29.84;43.92;100013.59;1619848;88;21198;-80
2022/07/28 06:44:09;;;;;;;13.72;6.55;;;;;;;29.94;43.30;100016.20;1624519;88;21195;-81
2022/07/28 06:47:17;;;;;;;12.73;6.25;;;;;;;29.97;42.77;100008.51;1620092;88;21185;-80
2022/07/28 06:50:17;;;;;;;8.70;5.55;;;;;;;29.97;42.77;100008.51;1640465;87;21156;-81
2022/07/28 06:53:24;;;;;;;10.30;5.20;;;;;;;30.03;42.46;100019.39;1648011;86;21205;-82
2022/07/28 06:56:32;;;;;;;9.80;5.03;;;;;;;30.12;42.39;100015.85;1621204;88;21254;-81
2022/07/28 06:59:40;;;;;;;6.85;4.78;;;;;;;30.20;42.13;100017.95;1626510;88;21176;-81
2022/07/28 07:02:47;;;;;;;9.40;5.58;;;;;;;30.18;41.45;100016.86;1635371;87;21247;-81
2022/07/28 07:05:53;;;;;;;14.28;6.80;;;;;;;30.17;41.88;100018.02;1621009;88;21221;-81
2022/07/28 07:08:59;;;;;;;9.68;5.03;;;;;;;30.12;41.67;100020.91;1620132;88;21188;-80
2022/07/28 07:12:07;;;;;;;7.80;4.78;;;;;;;30.03;41.98;100027.85;1618423;88;21272;-80
2022/07/28 07:15:13;;;;;;;8.65;4.45;;;;;;;30.03;41.88;100023.63;1616445;88;22654;-81
2022/07/28 07:18:19;;;;;;;6.83;4.35;;;;;;;30.03;41.26;100021.38;1622710;88;21181;-81
2022/07/28 07:21:26;;;;;;;8.70;4.80;;;;;;;30.18;41.33;100023.91;1616855;87;21227;-80
2022/07/28 07:24:32;;;;;;;8.55;4.05;;;;;;;30.16;42.70;100019.72;1621252;88;21670;-80
2022/07/28 07:27:38;;;;;;;8.18;4.20;;;;;;;30.13;42.66;100026.84;1624535;87;21198;-82
2022/07/28 07:30:45;;;;;;;4.33;3.80;;;;;;;30.05;42.80;100037.40;1628635;87;21728;-80
2022/07/28 07:33:51;;;;;;;5.37;4.17;;;;;;;30.01;42.24;100036.34;1631614;87;21172;-82
2022/07/28 07:36:57;;;;;;;4.08;3.62;;;;;;;30.08;42.17;100032.55;1654082;86;21246;-81
2022/07/28 07:40:02;;;;;;;4.60;3.22;;;;;;;30.13;41.22;100036.71;1647766;86;21265;-79
2022/07/28 07:43:09;;;;;;;5.72;2.98;;;;;;;30.10;41.10;100044.92;1642804;86;21244;-82
2022/07/28 07:46:14;;;;;;;4.85;2.75;;;;;;;30.02;40.64;100052.97;1645630;86;21208;-82
2022/07/28 07:49:20;;;;;;;3.52;3.05;;;;;;;29.96;39.93;100054.20;1648101;86;21240;-81
2022/07/28 07:52:26;;;;;;;5.40;3.05;;;;;;;29.94;40.77;100057.09;1627940;87;21222;-82
2022/07/28 07:55:33;;;;;;;8.23;2.92;;;;;;;29.96;40.89;100047.73;1637281;87;21777;-82
2022/07/28 07:58:39;;;;;;;3.87;2.90;;;;;;;30.02;41.00;100038.88;1640218;87;21257;-81
2022/07/28 08:01:45;;;;;;;7.15;3.12;;;;;;;30.09;40.58;100053.95;1636467;87;21600;-81
2022/07/28 08:04:51;;;;;;;7.15;3.30;;;;;;;30.08;40.67;100058.52;1664216;86;21304;-81
2022/07/28 08:07:55;;;;;;;7.37;2.90;;;;;;;30.00;40.25;100060.06;1637303;87;21206;-80
2022/07/28 08:11:02;;;;;;;4.87;2.85;;;;;;;29.98;40.43;100060.96;1650062;87;21225;-81
2022/07/28 08:14:09;;;;;;;6.80;2.98;;;;;;;29.92;40.47;100056.55;1651465;87;21229;-82
2022/07/28 08:17:07;;;;;;;;;;;;;;;29.86;40.81;100064.27;1654115;87;21201;-82
2022/07/28 08:20:13;;;;;;;4.42;3.27;;;;;;;29.82;40.90;100060.39;1667689;85;20582;-82
2022/07/28 08:23:19;;;;;;;3.22;2.62;;;;;;;29.91;41.10;100063.34;1673514;86;21177;-82
2022/07/28 08:26:24;;;;;;;5.15;2.70;;;;;;;30.05;41.20;100055.73;1671180;85;21210;-82
2022/07/28 08:29:31;;;;;;;3.20;2.60;;;;;;;30.19;40.67;100054.36;1645961;87;21269;-81
2022/07/28 08:32:35;;;;;;;8.88;2.40;;;;;;;30.29;40.12;100049.33;1664771;86;21174;-81
2022/07/28 08:35:43;;;;;;;5.30;2.62;;;;;;;30.37;39.91;100047.77;1631402;86;21884;-80
2022/07/28 08:38:48;;;;;;;4.15;2.90;;;;;;;30.35;40.00;100045.86;1662122;86;21237;-81
2022/07/28 08:42:26;;;;;;;4.87;2.22;;;;;;;30.35;40.00;100045.86;1645203;87;21236;-82
2022/07/28 08:45:31;;;;;;;2.42;2.22;;;;;;;30.34;38.88;100041.91;1658959;86;21756;-80
2022/07/28 08:48:39;;;;;;;5.83;2.12;;;;;;;30.37;38.60;100035.66;1649434;87;21763;-82
2022/07/28 08:51:44;;;;;;;3.52;2.42;;;;;;;30.45;39.24;100050.44;1649559;87;21233;-82
2022/07/28 08:54:43;;;;;;;4.47;2.58;;;;;;;30.51;38.74;100053.41;1649764;87;21779;-81
2022/07/28 08:57:48;;;;;;;2.67;2.47;;;;;;;30.52;38.47;100052.25;1649497;87;21779;-80
2022/07/28 09:00:56;;;;;;;4.83;2.58;;;;;;;30.53;38.97;100049.09;1661090;86;21173;-81
2022/07/28 09:04:02;;;;;;;3.35;2.55;;;;;;;30.59;39.24;100058.31;1672297;86;21193;-81
2022/07/28 09:07:07;;;;;;;4.17;2.65;;;;;;;30.62;38.47;100046.38;1666579;86;21202;-80
2022/07/28 09:10:14;;;;;;;3.00;2.00;;;;;;;30.66;38.38;100053.06;1663508;86;21269;-81
2022/07/28 09:13:20;;;;;;;8.00;2.75;;;;;;;30.66;37.41;100058.70;1650851;86;21192;-80
2022/07/28 09:16:25;;;;;;;5.28;3.22;;;;;;;30.65;38.26;100050.56;1632018;86;21276;-81
2022/07/28 09:19:32;;;;;;;4.62;3.20;;;;;;;30.59;38.52;100053.25;1646124;86;21204;-80
2022/07/28 09:22:39;;;;;;;5.97;2.98;;;;;;;30.51;38.79;100053.41;1616085;88;21841;-80
2022/07/28 09:25:44;;;;;;;4.42;3.20;;;;;;;30.55;39.44;100047.39;1655152;86;21789;-81
2022/07/28 09:29:02;;;;;;;5.70;3.62;;;;;;;30.65;39.02;100054.80;1650833;86;21233;-81
2022/07/28 09:32:08;;;;;;;4.75;3.67;;;;;;;30.74;38.92;100050.11;1643555;87;21216;-80
2022/07/28 09:35:26;;;;;;;9.35;4.47;;;;;;;30.85;39.56;100053.52;1661944;86;21237;-81
2022/07/28 09:38:33;;;;;;;5.47;3.55;;;;;;;30.92;39.12;100053.94;1663360;86;21209;-80
2022/07/28 09:41:57;;;;;;;9.75;4.25;;;;;;;30.79;38.86;100059.88;1671514;84;21809;-82
2022/07/28 09:45:14;;;;;;;4.50;4.00;;;;;;;30.63;38.73;100060.77;1655975;86;21246;-81
2022/07/28 09:48:22;;;;;;;10.28;5.12;;;;;;;30.62;38.50;100056.25;1658665;86;21185;-81
2022/07/28 09:51:34;;;;;;;11.15;4.58;;;;;;;30.79;39.05;100055.63;1648206;86;21216;-80
2022/07/28 09:54:39;;;;;;;7.53;4.90;;;;;;;30.92;39.65;100062.41;1645643;86;21220;-80
2022/07/28 09:57:46;;;;;;;9.63;4.30;;;;;;;30.89;39.42;100060.21;1643447;87;21236;-81
2022/07/28 10:00:52;;;;;;;5.70;4.28;;;;;;;30.95;38.64;100051.29;1654501;85;21208;-81
2022/07/28 10:04:01;;;;;;;7.22;3.87;;;;;;;31.04;39.00;100047.13;1657562;86;21224;-82
2022/07/28 10:07:20;;;;;;;11.20;3.10;;;;;;;31.15;38.85;100054.22;1654928;86;21240;-82
2022/07/28 10:10:18;;;;;;;3.87;3.02;;;;;;;31.10;38.31;100056.31;1658051;86;21252;-82
2022/07/28 10:13:23;;;;;;;7.17;2.72;;;;;;;30.97;38.64;100059.47;1648137;86;21226;-81
2022/07/28 10:16:32;;;;;;;5.25;2.60;;;;;;;30.89;39.02;100059.62;1652814;86;21233;-81
2022/07/28 10:19:39;;;;;;;10.03;2.77;;;;;;;30.83;38.96;100058.09;1661159;85;21181;-80
2022/07/28 10:22:46;;;;;;;4.97;2.77;;;;;;;30.83;39.55;100055.84;1627798;87;21237;-78
2022/07/28 10:25:52;;;;;;;2.72;2.45;;;;;;;30.82;39.44;100054.15;1636751;87;21314;-80
2022/07/28 10:29:00;;;;;;;6.87;2.95;;;;;;;30.70;39.88;100057.50;1635336;87;21269;-81
2022/07/28 10:32:08;;;;;;;9.30;2.52;;;;;;;30.52;39.66;100062.12;1603506;89;21235;-82
2022/07/28 10:35:19;;;;;;;4.25;2.00;;;;;;;30.47;39.63;100056.59;1615738;87;21607;-81
2022/07/28 10:38:30;;;;;;;4.70;2.30;;;;;;;30.50;39.12;100054.56;1613591;88;21222;-80
2022/07/28 10:41:37;;;;;;;5.62;2.27;;;;;;;30.62;38.76;100049.20;1635583;87;21814;-80
2022/07/28 10:44:35;;;;;;;4.47;2.02;;;;;;;30.85;38.79;100048.70;1642501;87;21189;-82
2022/07/28 10:47:40;;;;;;;7.28;2.25;;;;;;;31.10;38.68;100049.25;1631240;87;21244;-80
2022/07/28 10:50:47;;;;;;;9.20;2.90;;;;;;;31.17;38.62;100056.14;1640288;87;21808;-81
2022/07/28 10:54:09;;;;;;;4.10;2.58;;;;;;;31.09;39.06;100053.23;1632583;87;21236;-80
2022/07/28 10:57:17;;;;;;;10.63;2.30;;;;;;;30.98;38.74;100059.13;1589406;89;21209;-81
2022/07/28 11:00:28;;;;;;;7.10;2.42;;;;;;;30.77;38.81;100058.79;1593862;88;21536;-80
2022/07/28 11:03:49;;;;;;;8.25;2.25;;;;;;;30.64;38.63;100049.73;1629770;88;21209;-81
2022/07/28 11:06:55;;;;;;;3.95;2.15;;;;;;;30.59;38.72;100046.19;1619594;88;21245;-81
2022/07/28 11:10:00;;;;;;;3.00;2.25;;;;;;;30.68;38.88;100045.13;1579214;91;21285;-80
2022/07/28 11:13:05;;;;;;;4.08;1.98;;;;;;;30.80;38.45;100042.61;1603279;87;21239;-80
2022/07/28 11:16:27;;;;;;;2.50;2.08;;;;;;;30.87;38.60;100038.53;1631527;87;21572;-81
2022/07/28 11:19:56;;;;;;;1.90;1.80;;;;;;;30.98;38.18;100044.18;1593483;89;21794;-81
2022/07/28 11:23:10;;;;;;;3.10;2.08;;;;;;;31.05;37.84;100045.97;1607678;89;21824;-81
2022/07/28 11:26:36;;;;;;;5.12;2.20;;;;;;;31.04;37.29;100035.84;1605829;87;21261;-80
2022/07/28 11:29:53;;;;;;;4.22;2.30;;;;;;;31.00;37.64;100044.11;1633440;87;21249;-80
2022/07/28 11:33:05;;;;;;;3.12;2.52;;;;;;;31.00;37.25;100033.39;1642536;87;21265;-81
2022/07/28 11:36:13;;;;;;;2.95;2.40;;;;;;;31.08;37.01;100030.39;1632689;87;21245;-82
2022/07/28 11:39:31;;;;;;;3.17;2.40;;;;;;;31.18;37.48;100032.38;1640072;86;21195;-80
2022/07/28 11:42:39;;;;;;;6.37;2.40;;;;;;;31.20;37.35;100029.25;1634407;87;21749;-81
2022/07/28 11:45:47;;;;;;;2.65;2.30;;;;;;;31.20;37.57;100027.27;1620850;88;21296;-82
2022/07/28 11:48:54;;;;;;;3.35;2.58;;;;;;;31.20;37.84;100031.50;1638648;87;21778;-81
2022/07/28 11:52:17;;;;;;;5.03;2.30;;;;;;;31.28;37.08;100030.73;1631174;86;21198;-79
2022/07/28 11:55:24;;;;;;;8.45;2.80;;;;;;;31.35;37.21;100040.20;1639705;87;21217;-80
2022/07/28 11:58:32;;;;;;;8.60;2.47;;;;;;;31.40;36.07;100030.75;1639299;87;21186;-81
2022/07/28 12:01:37;;;;;;;5.65;2.50;;;;;;;31.43;35.54;100015.41;1626273;87;21281;-79
2022/07/28 12:04:43;;;;;;;5.55;2.95;;;;;;;31.41;35.66;100008.39;1636932;87;21493;-81
2022/07/28 12:07:50;;;;;;;3.55;2.25;;;;;;;31.28;35.91;100017.19;1621432;87;21198;-81
2022/07/28 12:10:46;;;;;;;2.83;2.35;;;;;;;31.01;36.62;100015.31;1629962;87;21386;-80
2022/07/28 12:13:54;;;;;;;12.30;3.02;;;;;;;30.87;36.84;100015.95;1640699;87;21231;-79
2022/07/28 12:17:00;;;;;;;2.90;1.90;;;;;;;30.77;36.86;100007.11;1599623;88;21185;-79
2022/07/28 12:20:12;;;;;;;5.65;2.37;;;;;;;30.79;36.81;100002.83;1656227;86;21763;-79
2022/07/28 12:23:18;;;;;;;6.42;2.70;;;;;;;30.82;36.95;100011.25;1630120;87;21780;-78
2022/07/28 12:26:45;;;;;;;10.00;2.40;;;;;;;30.87;36.98;100004.65;1633215;86;21199;-80
2022/07/28 12:29:51;;;;;;;4.28;2.40;;;;;;;30.92;37.09;100014.41;1637291;87;21917;-81
2022/07/28 12:32:57;;;;;;;6.70;2.15;;;;;;;30.96;37.21;100011.17;1637965;87;21226;-80
2022/07/28 12:36:04;;;;;;;3.22;2.27;;;;;;;30.97;37.22;100012.29;1651920;86;21208;-82
2022/07/28 12:39:11;;;;;;;4.00;3.10;;;;;;;31.02;36.53;99998.04;1628403;86;21770;-81
2022/07/28 12:42:18;;;;;;;2.45;2.25;;;;;;;31.08;36.26;100012.03;1615500;88;21548;-80
2022/07/28 12:45:27;;;;;;;6.47;2.42;;;;;;;31.14;35.70;100002.27;1604379;89;21266;-81
2022/07/28 12:48:32;;;;;;;3.75;2.33;;;;;;;31.17;35.71;100002.47;1627903;87;21242;-81
2022/07/28 12:51:47;;;;;;;3.52;2.45;;;;;;;31.14;36.06;99998.86;1628612;87;21547;-80
2022/07/28 12:54:53;;;;;;;2.50;2.20;;;;;;;31.15;36.26;100007.62;1619144;88;21781;-81
2022/07/28 12:57:58;;;;;;;6.22;2.58;;;;;;;31.17;36.19;100010.11;1606028;89;21785;-79
2022/07/28 13:01:07;;;;;;;3.08;2.12;;;;;;;31.13;36.50;100001.44;1617515;89;21234;-81
2022/07/28 13:04:11;;;;;;;5.00;2.47;;;;;;;31.17;36.18;99995.41;1610555;87;21235;-80
2022/07/28 13:07:31;;;;;;;8.05;2.62;;;;;;;31.26;35.75;100004.78;1643825;86;21692;-79
2022/07/28 13:10:37;;;;;;;7.62;2.33;;;;;;;31.32;36.02;99991.38;1637464;86;21231;-80
2022/07/28 13:13:37;;;;;;;5.15;2.30;;;;;;;31.36;36.08;100000.05;1648246;86;21177;-80
2022/07/28 13:16:43;;;;;;;6.83;2.42;;;;;;;31.41;35.84;100002.74;1663644;86;21235;-81
2022/07/28 13:19:51;;;;;;;2.98;2.35;;;;;;;31.36;35.92;99999.47;1641409;87;21315;-82
2022/07/28 13:22:58;;;;;;;3.05;2.35;;;;;;;31.29;35.72;100001.35;1641959;87;21187;-81
2022/07/28 13:25:58;;;;;;;6.12;2.72;;;;;;;31.19;35.78;100010.03;1644440;86;21173;-80
2022/07/28 13:29:08;;;;;;;5.50;2.60;;;;;;;31.08;36.43;100012.86;1659433;86;21229;-81
2022/07/28 13:32:14;;;;;;;6.40;2.58;;;;;;;31.03;36.62;100007.34;1633487;86;21483;-80
2022/07/28 13:35:21;;;;;;;3.90;2.17;;;;;;;31.08;37.14;100005.80;1631657;88;21217;-80
2022/07/28 13:38:27;;;;;;;7.37;2.98;;;;;;;31.13;36.82;100006.25;1632613;88;21240;-81
2022/07/28 13:41:34;;;;;;;2.60;2.40;;;;;;;31.18;36.24;100011.19;1631749;86;21225;-82
2022/07/28 13:44:36;;;;;;;2.70;2.20;;;;;;;31.18;35.76;100018.25;1631330;88;21758;-80
2022/07/28 13:47:42;;;;;;;4.78;2.30;;;;;;;31.11;36.08;100013.64;1632550;88;21261;-81
2022/07/28 13:50:50;;;;;;;5.85;2.40;;;;;;;31.08;36.48;100008.62;1631512;88;21209;-81
2022/07/28 13:53:55;;;;;;;4.22;2.33;;;;;;;31.05;36.56;100008.70;1653132;86;21209;-81
2022/07/28 13:57:19;;;;;;;7.03;2.30;;;;;;;31.09;35.65;100022.17;1659013;86;21204;-81
2022/07/28 14:00:24;;;;;;;2.50;2.20;;;;;;;31.04;35.49;100010.42;1659121;86;21257;-81
2022/07/28 14:03:31;;;;;;;5.28;2.40;;;;;;;31.01;36.40;100012.49;1657350;86;21197;-79
2022/07/28 14:06:39;;;;;;;3.25;2.33;;;;;;;30.99;36.98;100015.61;1629541;88;21241;-80
2022/07/28 14:09:46;;;;;;;2.67;2.25;;;;;;;31.02;36.94;100008.50;1629525;88;21201;-81
2022/07/28 14:12:51;;;;;;;6.75;2.60;;;;;;;31.03;36.50;100009.59;1630615;88;21206;-81
2022/07/28 14:15:57;;;;;;;5.55;2.60;;;;;;;31.05;37.13;100007.84;1629738;88;21228;-80
2022/07/28 14:19:03;;;;;;;8.65;2.40;;;;;;;31.04;36.58;100018.31;1640952;86;21197;-80
2022/07/28 14:22:11;;;;;;;6.78;2.50;;;;;;;30.96;36.55;100010.63;1651529;86;21216;-81
2022/07/28 14:25:19;;;;;;;3.37;2.42;;;;;;;30.87;36.51;100004.07;1646190;86;21212;-80
2022/07/28 14:28:24;;;;;;;2.50;2.20;;;;;;;30.75;36.72;99993.91;1650478;86;21288;-81
2022/07/28 14:31:31;;;;;;;6.08;2.47;;;;;;;30.68;37.37;100003.37;1651761;87;21278;-80
2022/07/28 14:34:37;;;;;;;7.67;2.40;;;;;;;30.62;37.10;99999.80;1649434;86;21765;-81